Saint-Denis/Gillot, Reunion
Current Conditions -  °F | °C
As of 5:30 AM on Sunday 26 Oct 2014 (Local Time) from FMEE Reporting Station
Scattered Clouds Scattered Clouds  
Wind Chill: 72°   Ceiling: Unl
Heat Index: 72°   Visibility: 6mi
Dew Point: 66°   Wind: 10mph
Humidity: 83%   Direction: 170°S
Pressure: 30"   Gusts: NA
Location:  20.89°S, 55.51°E
Report Text: FMEE 260130Z 17009KT 9999 FEW025 SCT260 22/19 Q1016 NOSIG
Loading
Personal Weather Stations






























Interactive Weather Map
Tropical Storm Tracking
New forecast layout! Learn more

10-Day Weather Forecast

Advertisements
Track Severe Weather on mobile